createdAt,value
2023-05-19T00:01:15.332Z,75.70
2023-05-19T00:03:53.970Z,75.10
2023-05-19T00:06:25.906Z,75.56
2023-05-19T00:09:02.372Z,75.59
2023-05-19T00:11:29.710Z,76.23
2023-05-19T00:13:59.088Z,75.66
2023-05-19T00:16:27.756Z,75.79
2023-05-19T00:18:54.836Z,76.01
2023-05-19T00:21:21.817Z,75.92
2023-05-19T00:23:48.675Z,75.40
2023-05-19T00:26:15.446Z,74.44
2023-05-19T00:28:42.137Z,74.86
2023-05-19T00:31:09.143Z,74.65
2023-05-19T00:33:36.705Z,75.10
2023-05-19T00:36:04.156Z,75.06
2023-05-19T00:38:31.773Z,74.47
2023-05-19T00:40:59.378Z,74.74
2023-05-19T00:43:26.529Z,74.42
2023-05-19T00:45:53.482Z,75.36
2023-05-19T00:48:21.228Z,75.56
2023-05-19T00:50:48.529Z,75.00
2023-05-19T00:53:15.313Z,75.07
2023-05-19T00:55:42.125Z,75.07
2023-05-19T00:58:09.899Z,74.92
2023-05-19T01:00:37.324Z,73.91
2023-05-19T01:03:11.518Z,74.15
2023-05-19T01:05:42.467Z,74.54
2023-05-19T01:08:09.405Z,74.69
2023-05-19T01:10:36.210Z,74.51
2023-05-19T01:13:03.946Z,74.77
2023-05-19T01:15:30.845Z,74.85
2023-05-19T01:18:11.407Z,75.05
2023-05-19T01:20:46.549Z,74.95
2023-05-19T01:23:18.556Z,74.93
2023-05-19T01:25:55.851Z,75.24
2023-05-19T01:28:47.992Z,74.79
2023-05-19T01:31:14.726Z,74.76
2023-05-19T01:33:41.630Z,74.82
2023-05-19T01:36:08.585Z,74.43
2023-05-19T01:38:35.622Z,75.11
2023-05-19T01:41:04.077Z,74.84
2023-05-19T01:43:30.948Z,74.76
2023-05-19T01:45:59.074Z,75.07
2023-05-19T01:48:25.975Z,74.87
2023-05-19T01:50:52.961Z,74.78
2023-05-19T01:53:19.859Z,75.16
2023-05-19T01:55:50.080Z,74.92
2023-05-19T01:58:25.914Z,74.92
2023-05-19T02:01:01.752Z,74.47
2023-05-19T02:03:47.687Z,74.16
2023-05-19T02:06:42.636Z,74.47
2023-05-19T02:09:12.861Z,75.00
2023-05-19T02:11:47.688Z,74.27
2023-05-19T02:14:18.363Z,73.95
2023-05-19T02:16:46.441Z,74.16
2023-05-19T02:19:28.061Z,73.98
2023-05-19T02:21:55.214Z,74.24
2023-05-19T02:24:23.117Z,74.38
2023-05-19T02:26:54.299Z,74.78
2023-05-19T02:29:21.139Z,75.05
2023-05-19T02:31:48.238Z,75.73
2023-05-19T02:34:15.171Z,74.16
2023-05-19T02:36:45.450Z,74.25
2023-05-19T02:39:12.504Z,74.57
2023-05-19T02:41:39.434Z,74.92
2023-05-19T02:44:06.506Z,74.37
2023-05-19T02:46:33.782Z,73.98
2023-05-19T02:49:00.586Z,73.68
2023-05-19T02:51:27.539Z,73.79
2023-05-19T02:53:54.378Z,73.52
2023-05-19T02:56:21.960Z,73.13
2023-05-19T02:58:48.887Z,73.32
2023-05-19T03:01:16.140Z,73.59
2023-05-19T03:03:43.098Z,73.71
2023-05-19T03:06:10.029Z,73.42
2023-05-19T03:08:36.926Z,73.37
2023-05-19T03:11:03.685Z,73.16
2023-05-19T03:13:30.570Z,73.45
2023-05-19T03:15:59.262Z,74.02
2023-05-19T03:18:26.825Z,73.68
2023-05-19T03:20:56.634Z,73.93
2023-05-19T03:23:24.188Z,74.77
2023-05-19T03:25:51.242Z,75.03
2023-05-19T03:28:18.278Z,75.18
2023-05-19T03:30:46.588Z,74.71
2023-05-19T03:33:13.604Z,74.72
2023-05-19T03:35:40.557Z,73.85
2023-05-19T03:38:07.727Z,73.83
2023-05-19T03:40:35.001Z,74.21
2023-05-19T03:43:02.119Z,73.95
2023-05-19T03:45:29.078Z,73.80
2023-05-19T03:47:56.182Z,73.57
2023-05-19T03:50:23.187Z,73.60
2023-05-19T03:52:49.996Z,73.37
2023-05-19T03:55:16.983Z,72.86
2023-05-19T03:57:44.558Z,72.95
2023-05-19T04:00:12.419Z,72.77
2023-05-19T04:02:39.539Z,72.14
2023-05-19T04:05:07.442Z,72.30
2023-05-19T04:07:34.219Z,72.47
2023-05-19T04:10:01.220Z,71.75
2023-05-19T04:12:28.388Z,72.37
2023-05-19T04:14:55.217Z,72.44
2023-05-19T04:17:23.827Z,72.01
2023-05-19T04:19:51.211Z,71.80
2023-05-19T04:22:17.995Z,71.11
2023-05-19T04:24:44.836Z,71.42
2023-05-19T04:27:12.431Z,70.41
2023-05-19T04:29:40.148Z,70.19
2023-05-19T04:32:07.928Z,70.29
2023-05-19T04:34:35.540Z,69.74
2023-05-19T04:37:02.667Z,69.79
2023-05-19T04:39:29.582Z,68.87
2023-05-19T04:41:56.728Z,68.25
2023-05-19T04:44:23.531Z,67.46
2023-05-19T04:46:54.457Z,66.94
2023-05-19T04:49:24.482Z,66.65
2023-05-19T04:51:52.315Z,67.41
2023-05-19T04:54:21.475Z,67.30
2023-05-19T04:56:48.260Z,67.88
2023-05-19T04:59:15.138Z,66.60
2023-05-19T05:01:43.405Z,66.44
2023-05-19T05:04:10.762Z,66.05
2023-05-19T05:06:38.532Z,65.02
2023-05-19T05:09:05.375Z,64.39
2023-05-19T05:11:32.520Z,63.81
2023-05-19T05:13:59.724Z,62.86
2023-05-19T05:16:26.775Z,65.37
2023-05-19T05:18:53.975Z,63.57
2023-05-19T05:21:21.285Z,63.25
2023-05-19T05:23:48.391Z,62.67
2023-05-19T05:26:18.244Z,62.52
2023-05-19T05:28:45.180Z,64.22
2023-05-19T05:31:12.214Z,61.12
2023-05-19T05:33:39.161Z,60.19
2023-05-19T05:36:06.325Z,60.11
2023-05-19T05:38:33.120Z,61.30
2023-05-19T05:41:00.568Z,59.51
2023-05-19T05:43:27.423Z,59.98
2023-05-19T05:45:54.528Z,59.99
2023-05-19T05:48:21.983Z,60.02
2023-05-19T05:50:49.031Z,56.91
2023-05-19T05:53:19.804Z,57.48
2023-05-19T05:55:47.543Z,58.81
2023-05-19T05:58:15.849Z,58.32
2023-05-19T06:00:45.731Z,58.19
2023-05-19T06:03:12.646Z,57.98
2023-05-19T06:05:39.876Z,57.38
2023-05-19T06:08:06.980Z,56.07
2023-05-19T06:10:35.797Z,54.38
2023-05-19T06:13:03.833Z,52.59
2023-05-19T06:15:30.772Z,53.28
2023-05-19T06:17:58.239Z,54.51
2023-05-19T06:20:25.722Z,52.88
2023-05-19T06:22:52.537Z,53.11
2023-05-19T06:25:20.769Z,52.58
2023-05-19T06:27:47.408Z,54.69
2023-05-19T06:30:14.606Z,51.05
2023-05-19T06:32:41.649Z,52.12
2023-05-19T06:35:08.748Z,51.24
2023-05-19T06:37:36.437Z,50.53
2023-05-19T06:40:04.032Z,50.40
2023-05-19T06:42:31.591Z,51.01
2023-05-19T06:44:58.545Z,51.09
2023-05-19T06:47:25.364Z,49.38
2023-05-19T06:49:55.659Z,50.67
2023-05-19T06:52:22.891Z,52.20
2023-05-19T06:54:50.041Z,47.17
2023-05-19T06:57:17.627Z,47.77
2023-05-19T06:59:46.786Z,48.86
2023-05-19T07:02:13.775Z,49.18
2023-05-19T07:04:41.280Z,48.41
2023-05-19T07:07:08.437Z,48.05
2023-05-19T07:09:35.474Z,47.87
2023-05-19T07:12:02.570Z,48.00
2023-05-19T07:14:29.460Z,48.34
2023-05-19T07:16:56.733Z,47.99
2023-05-19T07:19:24.272Z,49.31
2023-05-19T07:21:51.273Z,48.69
2023-05-19T07:24:18.319Z,47.90
2023-05-19T07:26:45.209Z,49.14
2023-05-19T07:29:11.953Z,47.67
2023-05-19T07:31:39.551Z,48.41
2023-05-19T07:34:06.587Z,48.35
2023-05-19T07:36:35.273Z,48.81
2023-05-19T07:39:02.114Z,48.47
2023-05-19T07:41:29.034Z,48.03
2023-05-19T07:43:56.129Z,49.61
2023-05-19T07:46:23.099Z,48.86
2023-05-19T07:48:50.479Z,48.84
2023-05-19T07:51:17.925Z,47.43
2023-05-19T07:53:45.045Z,48.39
2023-05-19T07:56:11.841Z,46.73
2023-05-19T07:58:38.788Z,43.83
2023-05-19T08:01:06.081Z,44.34
2023-05-19T08:03:34.021Z,46.10
2023-05-19T08:06:01.094Z,46.69
2023-05-19T08:08:28.154Z,45.65
2023-05-19T08:10:55.106Z,46.56
2023-05-19T08:13:22.044Z,43.72
2023-05-19T08:15:48.910Z,43.89
2023-05-19T08:18:15.885Z,44.72
2023-05-19T08:20:42.855Z,44.98
2023-05-19T08:23:10.127Z,46.68
2023-05-19T08:25:37.542Z,48.03
2023-05-19T08:28:04.524Z,48.35
2023-05-19T08:30:31.778Z,50.65
2023-05-19T08:32:58.927Z,48.03
2023-05-19T08:35:26.144Z,48.09
2023-05-19T08:37:53.102Z,46.34
2023-05-19T08:40:21.060Z,46.02
2023-05-19T08:42:48.352Z,44.59
2023-05-19T08:45:15.269Z,47.35
2023-05-19T08:47:42.954Z,43.31
2023-05-19T08:50:11.289Z,45.01
2023-05-19T08:53:01.966Z,48.40
2023-05-19T08:55:41.316Z,51.28
2023-05-19T08:58:08.171Z,48.99
2023-05-19T09:00:35.291Z,49.14
2023-05-19T09:03:17.410Z,50.86
2023-05-19T09:05:45.838Z,49.99
2023-05-19T09:08:12.749Z,50.91
2023-05-19T09:10:39.452Z,49.30
2023-05-19T09:13:06.486Z,48.81
2023-05-19T09:15:34.330Z,48.80
2023-05-19T09:18:11.834Z,49.62
2023-05-19T09:20:44.378Z,48.85
2023-05-19T09:23:16.302Z,43.70
2023-05-19T09:25:50.350Z,45.12
2023-05-19T09:28:31.734Z,45.79
2023-05-19T09:31:08.998Z,43.82
2023-05-19T09:33:41.618Z,46.40
2023-05-19T09:36:11.150Z,47.16
2023-05-19T09:38:41.535Z,48.05
2023-05-19T09:41:09.349Z,49.01
2023-05-19T09:43:36.702Z,47.91
2023-05-19T09:46:07.560Z,47.39
2023-05-19T09:48:35.642Z,48.00
2023-05-19T09:51:08.625Z,44.77
2023-05-19T09:53:35.593Z,46.16
2023-05-19T09:56:03.730Z,43.22
2023-05-19T09:58:37.114Z,42.82
2023-05-19T10:01:04.493Z,43.08
2023-05-19T10:03:33.258Z,41.91
2023-05-19T10:06:01.518Z,43.25
2023-05-19T10:08:30.017Z,44.74
2023-05-19T10:10:57.327Z,45.94
2023-05-19T10:13:24.161Z,47.20
2023-05-19T10:18:22.507Z,48.07
2023-05-19T10:20:49.550Z,46.33
2023-05-19T10:23:17.009Z,48.08
2023-05-19T10:25:43.962Z,48.22
2023-05-19T10:28:15.206Z,47.66
2023-05-19T10:30:45.733Z,50.92
2023-05-19T10:33:16.890Z,49.31
2023-05-19T10:36:21.462Z,50.74
2023-05-19T10:38:59.276Z,48.83
2023-05-19T10:41:39.356Z,48.73
2023-05-19T10:44:57.517Z,50.93
2023-05-19T10:47:25.681Z,49.73
2023-05-19T10:49:56.273Z,50.67
2023-05-19T10:52:26.328Z,47.67
2023-05-19T10:54:54.993Z,49.60
2023-05-19T10:57:33.198Z,45.15
2023-05-19T11:00:11.287Z,46.08
2023-05-19T11:02:43.180Z,45.16
2023-05-19T11:05:15.178Z,46.63
2023-05-19T11:07:43.715Z,52.20
2023-05-19T11:10:10.903Z,53.73
2023-05-19T11:12:45.315Z,56.66
2023-05-19T11:15:13.179Z,56.33
2023-05-19T11:17:41.650Z,60.48
2023-05-19T11:20:12.377Z,63.44
2023-05-19T11:22:39.410Z,65.44
2023-05-19T11:25:07.917Z,64.23
2023-05-19T11:27:37.544Z,63.37
2023-05-19T11:30:20.272Z,64.21
2023-05-19T11:32:50.527Z,67.82
2023-05-19T11:35:19.435Z,66.20
2023-05-19T11:37:47.842Z,66.62
2023-05-19T11:40:14.888Z,63.84
2023-05-19T11:42:42.328Z,62.85
2023-05-19T11:45:09.977Z,61.34
2023-05-19T11:47:50.779Z,55.50
2023-05-19T11:50:23.681Z,51.88
2023-05-19T11:52:51.652Z,48.96
2023-05-19T11:55:18.958Z,51.18
2023-05-19T11:58:04.066Z,48.57
2023-05-19T12:00:37.433Z,49.04
2023-05-19T12:03:04.571Z,46.37
2023-05-19T12:05:34.434Z,47.41
2023-05-19T12:08:03.083Z,48.14
2023-05-19T12:10:31.245Z,48.95
2023-05-19T12:12:58.711Z,46.86
2023-05-19T12:15:25.777Z,47.14
2023-05-19T12:18:02.152Z,46.77
2023-05-19T12:20:31.967Z,45.38
2023-05-19T12:22:59.603Z,51.25
2023-05-19T12:25:26.649Z,46.49
2023-05-19T12:27:59.670Z,46.05
2023-05-19T12:30:28.012Z,47.76
2023-05-19T12:32:57.070Z,48.32
2023-05-19T12:35:36.406Z,49.07
2023-05-19T12:38:06.979Z,48.99
2023-05-19T12:40:36.654Z,47.29
2023-05-19T12:43:04.432Z,45.78
2023-05-19T12:45:38.968Z,44.56
2023-05-19T12:48:11.277Z,46.62
2023-05-19T12:50:38.294Z,44.80
2023-05-19T12:53:14.083Z,47.06
2023-05-19T12:55:44.843Z,47.40
2023-05-19T12:58:12.370Z,44.78
2023-05-19T13:00:43.755Z,44.77
2023-05-19T13:03:17.908Z,47.10
2023-05-19T13:05:46.840Z,46.66
2023-05-19T13:08:14.666Z,45.46
2023-05-19T13:10:43.027Z,47.44
2023-05-19T13:13:10.105Z,45.86
2023-05-19T13:15:41.326Z,46.01
2023-05-19T13:18:09.225Z,46.94
2023-05-19T13:20:36.954Z,48.18
2023-05-19T13:23:03.906Z,47.76
2023-05-19T13:25:30.991Z,48.22
2023-05-19T13:27:59.588Z,48.43
2023-05-19T13:30:26.577Z,48.28
2023-05-19T13:32:53.377Z,48.17
2023-05-19T13:35:20.806Z,46.66
2023-05-19T13:37:47.604Z,45.98
2023-05-19T13:40:14.555Z,47.40
2023-05-19T13:42:41.368Z,49.43
2023-05-19T13:45:08.845Z,46.32
2023-05-19T13:47:36.052Z,46.54
2023-05-19T13:50:04.782Z,47.11
2023-05-19T13:52:31.821Z,47.44
2023-05-19T13:54:58.601Z,48.15
2023-05-19T13:57:28.560Z,47.04
2023-05-19T14:00:02.760Z,46.68
2023-05-19T14:02:30.891Z,45.42
2023-05-19T14:04:59.542Z,47.70
2023-05-19T14:07:26.292Z,46.85
2023-05-19T14:09:53.990Z,47.74
2023-05-19T14:12:27.543Z,48.23
2023-05-19T14:14:58.775Z,46.70
2023-05-19T14:17:27.218Z,45.31
2023-05-19T14:19:54.228Z,44.83
2023-05-19T14:22:21.275Z,45.32
2023-05-19T14:24:48.388Z,45.79
2023-05-19T14:27:15.167Z,45.92
2023-05-19T14:29:42.592Z,45.96
2023-05-19T14:32:09.463Z,43.83
2023-05-19T14:34:36.311Z,45.31
2023-05-19T14:37:03.193Z,42.50
2023-05-19T14:39:30.605Z,42.73
2023-05-19T14:41:59.645Z,45.24
2023-05-19T14:44:31.773Z,44.29
2023-05-19T14:47:00.177Z,45.69
2023-05-19T14:49:27.084Z,44.49
2023-05-19T14:51:54.086Z,43.20
2023-05-19T14:54:20.881Z,44.66
2023-05-19T14:56:47.673Z,45.41
2023-05-19T14:59:14.475Z,44.83
2023-05-19T15:01:41.371Z,43.95
2023-05-19T15:04:08.143Z,44.22
2023-05-19T15:06:34.953Z,44.92
2023-05-19T15:09:01.834Z,42.71
2023-05-19T15:11:28.648Z,43.75
2023-05-19T15:13:55.577Z,45.33
2023-05-19T15:16:22.483Z,49.93
2023-05-19T15:18:51.515Z,51.16
2023-05-19T15:21:18.620Z,54.15
2023-05-19T15:23:45.414Z,54.49
2023-05-19T15:26:12.162Z,56.17
2023-05-19T15:28:39.054Z,57.20
2023-05-19T15:31:06.052Z,57.88
2023-05-19T15:33:33.141Z,59.41
2023-05-19T15:36:00.117Z,60.29
2023-05-19T15:40:55.309Z,61.21
2023-05-19T15:41:13.858Z,61.25
2023-05-19T15:43:41.607Z,61.39
2023-05-19T15:46:08.585Z,60.87
2023-05-19T15:48:35.610Z,61.05
2023-05-19T15:51:02.561Z,62.25
2023-05-19T15:53:29.330Z,64.82
2023-05-19T15:55:57.579Z,65.75
2023-05-19T15:58:24.249Z,66.53
2023-05-19T16:00:51.352Z,67.46
2023-05-19T16:03:18.311Z,67.22
2023-05-19T16:05:45.130Z,67.50
2023-05-19T16:08:11.986Z,68.34
2023-05-19T16:10:38.835Z,68.06
2023-05-19T16:13:05.624Z,68.55
2023-05-19T16:15:32.419Z,69.13
2023-05-19T16:17:59.439Z,68.82
2023-05-19T16:20:28.245Z,67.34
2023-05-19T16:22:55.609Z,68.01
2023-05-19T16:25:22.975Z,68.32
2023-05-19T16:27:50.348Z,68.42
2023-05-19T16:30:17.158Z,68.56
2023-05-19T16:32:44.069Z,68.22
2023-05-19T16:35:11.314Z,67.73
2023-05-19T16:37:38.773Z,67.82
2023-05-19T16:40:08.428Z,67.04
2023-05-19T16:42:35.322Z,67.32
2023-05-19T16:45:02.271Z,66.62
2023-05-19T16:47:29.352Z,67.48
2023-05-19T16:49:56.458Z,66.26
2023-05-19T16:52:23.256Z,67.05
2023-05-19T16:54:50.136Z,67.02
2023-05-19T16:57:17.040Z,67.44
2023-05-19T16:59:43.830Z,67.05
2023-05-19T17:02:10.686Z,66.76
2023-05-19T17:04:37.566Z,66.80
2023-05-19T17:07:04.672Z,65.52
2023-05-19T17:09:31.819Z,64.82
2023-05-19T17:11:59.030Z,64.43
2023-05-19T17:14:25.853Z,65.33
2023-05-19T17:16:52.691Z,65.94
2023-05-19T17:19:19.682Z,65.96
2023-05-19T17:21:46.601Z,65.75
2023-05-19T17:24:13.456Z,65.11
2023-05-19T17:26:40.251Z,64.58
2023-05-19T17:29:07.415Z,65.44
2023-05-19T17:31:34.434Z,65.90
2023-05-19T17:34:01.289Z,66.27
2023-05-19T17:36:28.476Z,66.06
2023-05-19T17:38:55.537Z,66.67
2023-05-19T17:41:22.807Z,66.82
2023-05-19T17:43:49.732Z,66.81
2023-05-19T17:46:16.648Z,66.99
2023-05-19T17:48:44.038Z,64.37
2023-05-19T17:51:11.585Z,65.22
2023-05-19T17:53:38.826Z,66.43
2023-05-19T17:56:11.304Z,66.89
2023-05-19T17:58:38.733Z,67.59
2023-05-19T18:01:06.074Z,67.66
2023-05-19T18:03:33.676Z,66.95
2023-05-19T18:06:00.645Z,66.57
2023-05-19T18:08:27.474Z,66.41
2023-05-19T18:10:54.318Z,66.90
2023-05-19T18:13:22.967Z,66.40
2023-05-19T18:15:50.053Z,66.18
2023-05-19T18:18:17.007Z,65.76
2023-05-19T18:20:46.196Z,65.88
2023-05-19T18:23:13.137Z,66.11
2023-05-19T18:25:39.989Z,65.56
2023-05-19T18:28:07.932Z,64.76
2023-05-19T18:30:35.073Z,65.49
2023-05-19T18:33:03.913Z,63.52
2023-05-19T18:35:31.204Z,63.85
2023-05-19T18:37:58.021Z,64.11
2023-05-19T18:40:24.932Z,62.84
2023-05-19T18:42:51.941Z,63.22
2023-05-19T18:45:19.001Z,63.78
2023-05-19T18:47:46.645Z,64.02
2023-05-19T18:50:14.600Z,64.16
2023-05-19T18:52:41.459Z,63.36
2023-05-19T18:55:08.656Z,63.06
2023-05-19T18:57:35.557Z,63.89
2023-05-19T19:00:02.759Z,62.71
2023-05-19T19:02:29.626Z,62.65
2023-05-19T19:04:56.555Z,60.56
2023-05-19T19:07:24.476Z,61.40
2023-05-19T19:09:53.937Z,59.49
2023-05-19T19:12:21.333Z,60.51
2023-05-19T19:14:48.242Z,60.21
2023-05-19T19:17:15.149Z,61.42
2023-05-19T19:19:42.436Z,61.42
2023-05-19T19:22:09.455Z,62.03
2023-05-19T19:24:36.316Z,63.43
2023-05-19T19:27:03.969Z,64.92
2023-05-19T19:29:30.911Z,65.12
2023-05-19T19:31:57.768Z,65.07
2023-05-19T19:34:24.715Z,65.50
2023-05-19T19:36:51.532Z,65.69
2023-05-19T19:39:18.496Z,65.95
2023-05-19T19:41:45.532Z,66.03
2023-05-19T19:44:13.589Z,66.11
2023-05-19T19:46:40.632Z,66.04
2023-05-19T19:49:07.608Z,66.12
2023-05-19T19:51:34.343Z,67.06
2023-05-19T19:54:01.161Z,67.04
2023-05-19T19:56:28.342Z,67.39
2023-05-19T19:58:57.529Z,67.74
2023-05-19T20:01:27.635Z,67.63
2023-05-19T20:03:55.421Z,67.90
2023-05-19T20:06:22.400Z,68.09
2023-05-19T20:08:49.420Z,68.21
2023-05-19T20:11:16.678Z,68.64
2023-05-19T20:13:43.615Z,68.64
2023-05-19T20:16:10.463Z,68.54
2023-05-19T20:18:37.352Z,68.41
2023-05-19T20:21:04.209Z,68.72
2023-05-19T20:23:31.028Z,69.04
2023-05-19T20:26:10.722Z,69.43
2023-05-19T20:28:38.330Z,69.48
2023-05-19T20:31:05.925Z,69.33
2023-05-19T20:33:32.664Z,69.98
2023-05-19T20:35:59.388Z,69.71
2023-05-19T20:38:26.180Z,69.85
2023-05-19T20:40:54.330Z,70.03
2023-05-19T20:43:21.366Z,70.32
2023-05-19T20:45:48.338Z,70.83
2023-05-19T20:48:16.140Z,71.35
2023-05-19T20:50:43.187Z,71.71
2023-05-19T20:53:10.111Z,72.01
2023-05-19T20:55:41.351Z,72.07
2023-05-19T20:58:08.199Z,72.04
2023-05-19T21:00:35.191Z,72.36
2023-05-19T21:03:02.258Z,72.69
2023-05-19T21:05:29.312Z,72.86
2023-05-19T21:07:56.440Z,73.05
2023-05-19T21:10:23.343Z,73.10
2023-05-19T21:12:50.139Z,73.20
2023-05-19T21:15:17.114Z,72.99
2023-05-19T21:17:44.003Z,72.84
2023-05-19T21:20:11.233Z,73.14
2023-05-19T21:22:38.361Z,72.90
2023-05-19T21:25:05.636Z,73.34
2023-05-19T21:27:35.951Z,73.72
2023-05-19T21:30:02.925Z,73.70
2023-05-19T21:32:30.476Z,73.75
2023-05-19T21:34:57.294Z,73.80
2023-05-19T21:37:24.094Z,73.79
2023-05-19T21:39:50.945Z,73.89
2023-05-19T21:42:17.777Z,73.95
2023-05-19T21:44:44.736Z,73.91
2023-05-19T21:47:11.642Z,73.93
2023-05-19T21:49:40.405Z,73.73
2023-05-19T21:52:07.995Z,73.95
2023-05-19T21:54:35.038Z,73.95
2023-05-19T21:57:02.526Z,74.02
2023-05-19T21:59:29.371Z,74.00
2023-05-19T22:01:56.079Z,74.08
2023-05-19T22:04:23.718Z,74.14
2023-05-19T22:06:50.612Z,74.42
2023-05-19T22:09:18.201Z,74.32
2023-05-19T22:11:45.074Z,74.44
2023-05-19T22:14:12.076Z,74.62
2023-05-19T22:16:39.226Z,74.49
2023-05-19T22:19:06.186Z,74.48
2023-05-19T22:21:33.324Z,74.41
2023-05-19T22:24:00.201Z,74.40
2023-05-19T22:26:27.323Z,74.56
2023-05-19T22:28:54.097Z,74.82
2023-05-19T22:31:21.050Z,74.89
2023-05-19T22:33:47.839Z,74.94
2023-05-19T22:36:16.186Z,74.90
2023-05-19T22:38:43.057Z,74.98
2023-05-19T22:41:09.840Z,75.15
2023-05-19T22:43:37.001Z,74.83
2023-05-19T22:46:04.024Z,75.07
2023-05-19T22:48:30.935Z,74.87
2023-05-19T22:50:57.781Z,74.80
2023-05-19T22:53:24.495Z,74.66
2023-05-19T22:55:51.519Z,75.10
2023-05-19T22:58:19.073Z,75.14
2023-05-19T23:00:46.077Z,74.92
2023-05-19T23:03:13.143Z,75.02
2023-05-19T23:05:40.740Z,75.19
2023-05-19T23:08:07.587Z,75.34
2023-05-19T23:10:34.375Z,75.40
2023-05-19T23:13:01.370Z,75.56
2023-05-19T23:15:29.350Z,75.76
2023-05-19T23:17:56.337Z,75.59
2023-05-19T23:20:23.226Z,75.64
2023-05-19T23:22:50.030Z,75.75
2023-05-19T23:25:16.926Z,75.98
2023-05-19T23:27:44.084Z,76.16
2023-05-19T23:30:11.070Z,76.02
2023-05-19T23:32:37.945Z,76.37
2023-05-19T23:35:16.676Z,76.42
2023-05-19T23:37:43.584Z,76.73
2023-05-19T23:40:10.709Z,76.95
2023-05-19T23:42:37.672Z,77.07
2023-05-19T23:45:04.938Z,77.33
2023-05-19T23:47:31.768Z,77.70
2023-05-19T23:49:58.625Z,77.71
2023-05-19T23:52:25.466Z,77.41
2023-05-19T23:54:52.310Z,77.49
2023-05-19T23:57:19.146Z,77.47
2023-05-19T23:59:46.197Z,77.46
